createdAt,value
2022-09-06T00:00:41.219Z,75.01
2022-09-06T00:01:41.296Z,72.60
2022-09-06T00:02:41.421Z,70.93
2022-09-06T00:03:41.587Z,68.49
2022-09-06T00:04:41.631Z,64.51
2022-09-06T00:05:41.838Z,60.93
2022-09-06T00:06:41.922Z,56.56
2022-09-06T00:07:42.059Z,51.15
2022-09-06T00:08:42.376Z,46.94
2022-09-06T00:09:42.325Z,42.22
2022-09-06T00:10:42.416Z,38.74
2022-09-06T00:11:42.535Z,36.25
2022-09-06T00:12:42.634Z,34.01
2022-09-06T00:13:42.819Z,32.27
2022-09-06T00:14:42.987Z,30.77
2022-09-06T00:15:43.047Z,29.87
2022-09-06T00:16:43.113Z,29.08
2022-09-06T00:17:43.284Z,28.22
2022-09-06T00:18:43.563Z,28.03
2022-09-06T00:19:43.546Z,27.45
2022-09-06T00:20:44.195Z,28.05
2022-09-06T00:21:43.780Z,28.01
2022-09-06T00:22:43.883Z,27.35
2022-09-06T00:23:44.114Z,27.35
2022-09-06T00:24:44.093Z,26.89
2022-09-06T00:25:44.254Z,26.50
2022-09-06T00:26:44.345Z,26.46
2022-09-06T00:27:44.444Z,25.91
2022-09-06T00:28:44.534Z,25.42
2022-09-06T00:29:44.673Z,25.35
2022-09-06T00:30:44.869Z,25.86
2022-09-06T00:31:44.944Z,26.00
2022-09-06T00:32:45.083Z,26.05
2022-09-06T00:33:45.183Z,26.10
2022-09-06T00:34:45.283Z,26.84
2022-09-06T00:35:45.562Z,27.15
2022-09-06T00:36:45.572Z,27.64
2022-09-06T00:37:45.735Z,28.35
2022-09-06T00:38:45.793Z,28.88
2022-09-06T00:39:45.916Z,29.66
2022-09-06T00:40:46.042Z,30.66
2022-09-06T00:41:46.142Z,30.91
2022-09-06T00:42:46.412Z,31.05
2022-09-06T00:43:46.421Z,30.07
2022-09-06T00:44:46.534Z,29.62
2022-09-06T00:45:46.641Z,29.31
2022-09-06T00:46:46.742Z,29.35
2022-09-06T00:47:47.061Z,29.37
2022-09-06T00:48:46.935Z,29.81
2022-09-06T00:49:47.073Z,30.19
2022-09-06T00:50:47.237Z,30.22
2022-09-06T00:51:47.322Z,30.39
2022-09-06T00:52:47.680Z,29.64
2022-09-06T00:53:47.591Z,29.10
2022-09-06T00:54:47.670Z,29.43
2022-09-06T00:55:47.830Z,29.06
2022-09-06T00:56:47.970Z,28.84
2022-09-06T00:57:48.170Z,28.78
2022-09-06T00:58:48.269Z,28.80
2022-09-06T00:59:48.309Z,28.49
2022-09-06T01:00:48.427Z,27.71
2022-09-06T01:01:48.751Z,27.28
2022-09-06T01:02:48.788Z,26.96
2022-09-06T01:03:48.897Z,26.85
2022-09-06T01:04:48.940Z,26.35
2022-09-06T01:05:53.891Z,26.02
2022-09-06T01:06:50.148Z,25.73
2022-09-06T01:07:49.287Z,25.57
2022-09-06T01:08:49.546Z,25.26
2022-09-06T01:09:49.536Z,25.32
2022-09-06T01:10:49.704Z,24.95
2022-09-06T01:11:49.777Z,24.68
2022-09-06T01:12:49.923Z,24.41
2022-09-06T01:13:50.239Z,24.49
2022-09-06T01:14:50.307Z,24.32
2022-09-06T01:15:50.362Z,24.18
2022-09-06T01:16:50.438Z,24.11
2022-09-06T01:17:50.584Z,24.31
2022-09-06T01:18:50.665Z,24.25
2022-09-06T01:19:50.976Z,24.28
2022-09-06T01:20:50.958Z,24.17
2022-09-06T01:21:51.065Z,24.19
2022-09-06T01:22:51.173Z,24.12
2022-09-06T01:23:51.334Z,24.04
2022-09-06T01:24:51.516Z,24.06
2022-09-06T01:25:51.563Z,23.93
2022-09-06T01:26:51.654Z,23.93
2022-09-06T01:27:51.795Z,23.80
2022-09-06T01:28:51.932Z,23.88
2022-09-06T01:29:52.185Z,24.06
2022-09-06T01:30:52.242Z,24.04
2022-09-06T01:31:52.354Z,24.06
2022-09-06T01:32:52.443Z,24.01
2022-09-06T01:33:52.593Z,24.25
2022-09-06T01:34:52.813Z,23.97
2022-09-06T01:35:52.865Z,24.04
2022-09-06T01:37:08.861Z,23.99
2022-09-06T01:37:54.063Z,24.10
2022-09-06T01:38:53.183Z,24.06
2022-09-06T01:39:53.504Z,24.10
2022-09-06T01:40:53.472Z,24.06
2022-09-06T01:41:53.563Z,23.96
2022-09-06T01:42:53.663Z,23.94
2022-09-06T01:43:53.845Z,23.97
2022-09-06T01:44:54.090Z,23.89
2022-09-06T01:45:54.189Z,24.01
2022-09-06T01:46:54.182Z,23.96
2022-09-06T01:47:54.321Z,23.99
2022-09-06T01:48:54.471Z,23.92
2022-09-06T01:49:54.812Z,23.89
2022-09-06T01:50:54.710Z,23.85
2022-09-06T01:51:54.811Z,23.78
2022-09-06T01:52:54.930Z,23.71
2022-09-06T01:53:55.030Z,23.92
2022-09-06T01:54:55.263Z,23.89
2022-09-06T01:55:55.361Z,23.86
2022-09-06T01:56:55.409Z,23.90
2022-09-06T01:57:55.505Z,23.96
2022-09-06T01:58:55.651Z,24.00
2022-09-06T01:59:55.938Z,24.04
2022-09-06T02:00:55.928Z,24.26
2022-09-06T02:01:56.061Z,24.18
2022-09-06T02:02:56.221Z,24.24
2022-09-06T02:03:56.246Z,24.35
2022-09-06T02:04:56.489Z,24.35
2022-09-06T02:05:56.501Z,24.46
2022-09-06T02:06:56.717Z,24.42
2022-09-06T02:07:56.716Z,24.52
2022-09-06T02:08:56.857Z,24.59
2022-09-06T02:09:56.958Z,24.61
2022-09-06T02:10:57.075Z,24.55
2022-09-06T02:11:57.338Z,24.54
2022-09-06T02:12:57.270Z,24.67
2022-09-06T02:13:57.427Z,24.65
2022-09-06T02:14:57.505Z,24.62
2022-09-06T02:15:57.657Z,24.72
2022-09-06T02:16:57.937Z,24.74
2022-09-06T02:17:57.966Z,24.89
2022-09-06T02:18:58.016Z,25.01
2022-09-06T02:19:58.154Z,24.95
2022-09-06T02:20:58.316Z,25.04
2022-09-06T02:21:58.636Z,25.10
2022-09-06T02:22:58.707Z,25.04
2022-09-06T02:23:58.667Z,25.20
2022-09-06T02:24:58.835Z,25.14
2022-09-06T02:25:58.947Z,25.25
2022-09-06T02:26:59.114Z,25.17
2022-09-06T02:27:59.175Z,25.22
2022-09-06T02:28:59.275Z,25.22
2022-09-06T02:29:59.575Z,25.25
2022-09-06T02:30:59.531Z,25.37
2022-09-06T02:31:59.594Z,25.35
2022-09-06T02:32:59.743Z,25.46
2022-09-06T02:33:59.844Z,25.46
2022-09-06T02:34:59.963Z,25.40
2022-09-06T02:36:00.194Z,25.49
2022-09-06T02:37:00.184Z,25.46
2022-09-06T02:38:00.282Z,25.45
2022-09-06T02:39:00.433Z,25.51
2022-09-06T02:40:00.661Z,25.64
2022-09-06T02:41:00.644Z,25.51
2022-09-06T02:42:00.791Z,25.65
2022-09-06T02:43:00.943Z,25.73
2022-09-06T02:44:01.022Z,25.81
2022-09-06T02:45:01.242Z,25.79
2022-09-06T02:46:01.334Z,25.92
2022-09-06T02:47:01.411Z,25.83
2022-09-06T02:48:01.554Z,25.87
2022-09-06T02:49:01.732Z,25.87
2022-09-06T02:50:01.921Z,25.89
2022-09-06T02:51:01.982Z,25.89
2022-09-06T02:52:02.068Z,25.94
2022-09-06T02:53:02.200Z,25.83
2022-09-06T02:54:02.340Z,25.91
2022-09-06T02:55:02.544Z,25.95
2022-09-06T02:56:02.651Z,25.95
2022-09-06T02:57:02.749Z,25.97
2022-09-06T02:58:02.859Z,25.89
2022-09-06T02:59:02.958Z,25.83
2022-09-06T03:00:03.128Z,25.89
2022-09-06T03:01:03.288Z,25.87
2022-09-06T03:02:03.404Z,25.95
2022-09-06T03:03:03.508Z,26.02
2022-09-06T03:04:03.658Z,26.00
2022-09-06T03:05:03.958Z,25.97
2022-09-06T03:06:03.958Z,26.08
2022-09-06T03:07:04.068Z,26.12
2022-09-06T03:08:04.187Z,26.23
2022-09-06T03:09:04.328Z,26.23
2022-09-06T03:10:04.697Z,26.31
2022-09-06T03:11:04.597Z,26.35
2022-09-06T03:12:04.668Z,26.33
2022-09-06T03:13:04.826Z,26.28
2022-09-06T03:14:04.957Z,26.33
2022-09-06T03:15:05.156Z,26.25
2022-09-06T03:16:05.247Z,26.20
2022-09-06T03:17:05.391Z,26.40
2022-09-06T03:18:05.467Z,26.36
2022-09-06T03:19:05.610Z,26.45
2022-09-06T03:20:05.836Z,26.51
2022-09-06T03:21:05.886Z,26.53
2022-09-06T03:22:05.977Z,26.60
2022-09-06T03:23:06.095Z,26.57
2022-09-06T03:24:06.224Z,26.62
2022-09-06T03:25:06.405Z,26.65
2022-09-06T03:26:06.506Z,26.60
2022-09-06T03:27:06.603Z,26.70
2022-09-06T03:28:06.733Z,26.82
2022-09-06T03:29:06.894Z,26.85
2022-09-06T03:30:07.064Z,26.84
2022-09-06T03:31:07.177Z,26.91
2022-09-06T03:32:07.214Z,26.89
2022-09-06T03:33:07.382Z,26.85
2022-09-06T03:34:10.960Z,26.96
2022-09-06T03:35:07.644Z,26.99
2022-09-06T03:36:07.752Z,26.99
2022-09-06T03:37:07.837Z,27.03
2022-09-06T03:38:07.972Z,27.05
2022-09-06T03:39:08.114Z,27.10
2022-09-06T03:40:08.361Z,27.13
2022-09-06T03:41:08.352Z,27.15
2022-09-06T03:42:08.451Z,27.06
2022-09-06T03:43:08.582Z,27.13
2022-09-06T03:44:08.720Z,27.12
2022-09-06T03:45:08.921Z,27.13
2022-09-06T03:46:09.031Z,27.26
2022-09-06T03:47:09.050Z,27.24
2022-09-06T03:48:09.221Z,27.28
2022-09-06T03:49:09.331Z,27.42
2022-09-06T03:50:09.520Z,27.28
2022-09-06T03:51:09.553Z,27.40
2022-09-06T03:52:09.721Z,27.38
2022-09-06T03:53:09.819Z,27.35
2022-09-06T03:54:10.009Z,27.45
2022-09-06T03:55:10.141Z,27.42
2022-09-06T03:56:10.277Z,27.60
2022-09-06T03:57:10.368Z,27.49
2022-09-06T03:58:10.515Z,27.55
2022-09-06T03:59:10.688Z,27.55
2022-09-06T04:00:10.809Z,27.53
2022-09-06T04:01:10.994Z,27.67
2022-09-06T04:02:11.046Z,27.64
2022-09-06T04:03:11.138Z,27.67
2022-09-06T04:04:11.245Z,27.62
2022-09-06T04:05:11.557Z,27.75
2022-09-06T04:06:11.457Z,27.78
2022-09-06T04:07:11.527Z,27.78
2022-09-06T04:08:11.656Z,27.84
2022-09-06T04:09:11.808Z,27.73
2022-09-06T04:10:11.996Z,27.93
2022-09-06T04:11:12.056Z,27.84
2022-09-06T04:12:12.159Z,27.90
2022-09-06T04:13:12.295Z,28.03
2022-09-06T04:14:12.446Z,27.73
2022-09-06T04:15:12.599Z,27.88
2022-09-06T04:16:12.732Z,28.01
2022-09-06T04:17:12.807Z,27.97
2022-09-06T04:18:12.905Z,28.10
2022-09-06T04:19:13.013Z,28.16
2022-09-06T04:20:13.185Z,28.08
2022-09-06T04:21:13.312Z,28.14
2022-09-06T04:22:13.375Z,28.08
2022-09-06T04:23:13.508Z,28.24
2022-09-06T04:24:13.565Z,28.27
2022-09-06T04:25:13.901Z,28.24
2022-09-06T04:26:13.826Z,28.37
2022-09-06T04:27:13.924Z,28.31
2022-09-06T04:28:14.073Z,28.29
2022-09-06T04:29:14.181Z,28.39
2022-09-06T04:30:14.476Z,28.39
2022-09-06T04:31:14.471Z,28.58
2022-09-06T04:32:14.552Z,28.39
2022-09-06T04:33:14.746Z,28.50
2022-09-06T04:34:14.844Z,28.58
2022-09-06T04:35:15.084Z,28.56
2022-09-06T04:36:15.112Z,28.74
2022-09-06T04:37:15.242Z,28.60
2022-09-06T04:38:15.380Z,28.66
2022-09-06T04:39:15.534Z,28.68
2022-09-06T04:40:15.701Z,28.68
2022-09-06T04:41:15.741Z,28.58
2022-09-06T04:42:15.860Z,28.58
2022-09-06T04:43:16.020Z,28.70
2022-09-06T04:44:16.070Z,28.72
2022-09-06T04:45:16.207Z,28.84
2022-09-06T04:46:16.485Z,28.86
2022-09-06T04:47:16.470Z,28.78
2022-09-06T04:48:16.729Z,28.90
2022-09-06T04:49:16.729Z,28.86
2022-09-06T04:50:16.882Z,28.94
2022-09-06T04:51:16.969Z,28.90
2022-09-06T04:52:17.122Z,29.14
2022-09-06T04:53:17.351Z,29.16
2022-09-06T04:54:17.354Z,29.22
2022-09-06T04:55:17.458Z,29.33
2022-09-06T04:56:17.598Z,29.18
2022-09-06T04:57:17.766Z,29.39
2022-09-06T04:58:17.928Z,29.51
2022-09-06T04:59:17.990Z,29.28
2022-09-06T05:00:18.108Z,29.45
2022-09-06T05:01:18.319Z,29.41
2022-09-06T05:02:18.415Z,29.49
2022-09-06T05:03:18.557Z,29.33
2022-09-06T05:04:18.646Z,29.22
2022-09-06T05:05:18.796Z,29.33
2022-09-06T05:06:18.923Z,29.26
2022-09-06T05:07:19.078Z,29.53
2022-09-06T05:08:19.431Z,29.41
2022-09-06T05:09:19.316Z,29.41
2022-09-06T05:10:19.421Z,29.39
2022-09-06T05:11:19.575Z,29.47
2022-09-06T05:12:19.665Z,29.43
2022-09-06T05:13:19.886Z,29.22
2022-09-06T05:14:19.954Z,29.51
2022-09-06T05:15:20.074Z,29.60
2022-09-06T05:16:20.275Z,29.60
2022-09-06T05:17:20.313Z,29.47
2022-09-06T05:18:20.571Z,29.47
2022-09-06T05:19:20.591Z,29.60
2022-09-06T05:20:20.723Z,29.55
2022-09-06T05:21:20.883Z,29.62
2022-09-06T05:22:21.025Z,29.43
2022-09-06T05:23:21.123Z,29.45
2022-09-06T05:24:21.239Z,29.35
2022-09-06T05:25:21.343Z,29.39
2022-09-06T05:26:21.442Z,29.43
2022-09-06T05:27:21.814Z,29.41
2022-09-06T05:28:21.850Z,29.49
2022-09-06T05:29:21.822Z,29.66
2022-09-06T05:30:21.942Z,29.49
2022-09-06T05:31:22.085Z,29.31
2022-09-06T05:32:22.191Z,29.28
2022-09-06T05:33:22.561Z,29.22
2022-09-06T05:34:22.483Z,29.00
2022-09-06T05:35:22.611Z,28.94
2022-09-06T05:36:22.770Z,28.80
2022-09-06T05:37:22.850Z,28.86
2022-09-06T05:38:23.145Z,28.90
2022-09-06T05:39:23.322Z,28.92
2022-09-06T05:40:23.239Z,29.14
2022-09-06T05:41:23.330Z,29.26
2022-09-06T05:42:23.448Z,29.28
2022-09-06T05:43:23.569Z,29.31
2022-09-06T05:44:23.820Z,29.31
2022-09-06T05:45:23.847Z,29.35
2022-09-06T05:46:23.924Z,29.24
2022-09-06T05:47:24.069Z,29.43
2022-09-06T05:48:24.182Z,29.33
2022-09-06T05:49:24.390Z,29.12
2022-09-06T05:50:24.457Z,29.24
2022-09-06T05:51:24.587Z,29.35
2022-09-06T05:52:24.690Z,29.41
2022-09-06T05:53:24.777Z,29.51
2022-09-06T05:54:25.031Z,29.58
2022-09-06T05:55:25.051Z,29.70
2022-09-06T05:56:25.199Z,29.55
2022-09-06T05:57:25.528Z,29.89
2022-09-06T05:58:25.493Z,30.11
2022-09-06T05:59:25.617Z,30.55
2022-09-06T06:00:25.766Z,31.52
2022-09-06T06:01:25.938Z,31.83
2022-09-06T06:02:26.202Z,32.50
2022-09-06T06:03:26.291Z,33.14
2022-09-06T06:04:26.267Z,33.01
2022-09-06T06:05:26.406Z,33.76
2022-09-06T06:06:26.505Z,35.12
2022-09-06T06:07:26.645Z,36.03
2022-09-06T06:08:27.041Z,37.02
2022-09-06T06:09:26.905Z,39.28
2022-09-06T06:10:27.033Z,41.89
2022-09-06T06:11:27.196Z,44.24
2022-09-06T06:12:27.296Z,46.40
2022-09-06T06:13:27.528Z,48.58
2022-09-06T06:14:27.569Z,50.40
2022-09-06T06:15:27.704Z,50.44
2022-09-06T06:16:27.908Z,51.69
2022-09-06T06:17:27.982Z,52.83
2022-09-06T06:18:28.295Z,52.60
2022-09-06T06:19:28.344Z,52.86
2022-09-06T06:20:28.417Z,53.34
2022-09-06T06:21:28.535Z,53.89
2022-09-06T06:22:28.626Z,54.27
2022-09-06T06:23:28.923Z,53.99
2022-09-06T06:24:28.893Z,52.37
2022-09-06T06:25:29.042Z,51.37
2022-09-06T06:26:29.182Z,50.50
2022-09-06T06:27:29.331Z,50.25
2022-09-06T06:28:29.503Z,51.91
2022-09-06T06:29:29.552Z,54.70
2022-09-06T06:30:29.677Z,55.50
2022-09-06T06:31:29.888Z,54.67
2022-09-06T06:32:29.942Z,55.65
2022-09-06T06:33:30.162Z,58.21
2022-09-06T06:34:30.331Z,60.53
2022-09-06T06:35:30.313Z,62.34
2022-09-06T06:36:30.469Z,63.92
2022-09-06T06:37:30.562Z,63.77
2022-09-06T06:38:30.821Z,66.63
2022-09-06T06:39:31.035Z,70.04
2022-09-06T06:40:30.921Z,73.62
2022-09-06T06:41:31.059Z,75.90
2022-09-06T06:42:31.191Z,76.60
2022-09-06T06:43:31.346Z,77.38
2022-09-06T06:44:31.628Z,75.15
2022-09-06T06:45:31.610Z,74.14
2022-09-06T06:46:31.681Z,76.04
2022-09-06T06:47:31.831Z,78.03
2022-09-06T06:48:31.989Z,77.02
2022-09-06T06:49:32.170Z,78.69
2022-09-06T06:50:32.367Z,81.69
2022-09-06T06:51:32.409Z,83.16
2022-09-06T06:52:32.507Z,82.34
2022-09-06T06:53:32.659Z,83.91
2022-09-06T06:54:32.839Z,80.36
2022-09-06T06:55:33.020Z,77.38
2022-09-06T06:56:33.038Z,72.66
2022-09-06T06:57:33.280Z,74.61
2022-09-06T06:58:33.248Z,75.90
2022-09-06T06:59:33.389Z,70.51
2022-09-06T07:00:33.555Z,69.11
2022-09-06T07:01:33.806Z,70.57
2022-09-06T07:02:33.840Z,74.68
2022-09-06T07:03:33.919Z,79.29
2022-09-06T07:04:34.048Z,85.81
2022-09-06T07:07:37.880Z,86.52
2022-09-06T07:08:34.605Z,87.98
2022-09-06T07:10:35.867Z,90.96
2022-09-06T07:11:35.160Z,93.72
2022-09-06T07:12:35.079Z,98.68
2022-09-06T07:13:35.207Z,102.63
2022-09-06T07:14:35.367Z,100.22
2022-09-06T07:15:35.527Z,103.84
2022-09-06T07:16:35.980Z,109.79
2022-09-06T07:17:35.749Z,120.66
2022-09-06T07:18:35.827Z,121.36
2022-09-06T07:21:37.693Z,120.84
2022-09-06T07:22:36.329Z,121.54
2022-09-06T07:24:37.647Z,138.14
2022-09-06T07:25:36.669Z,144.23
2022-09-06T07:26:37.368Z,150.34
2022-09-06T07:27:52.363Z,151.84
2022-09-06T07:28:38.188Z,155.96
2022-09-06T07:29:37.167Z,165.22
2022-09-06T07:30:37.349Z,161.70
2022-09-06T07:32:38.576Z,147.42
2022-09-06T07:33:37.836Z,137.68
2022-09-06T07:34:37.775Z,141.30
2022-09-06T07:35:37.908Z,152.68
2022-09-06T07:36:38.004Z,151.29
2022-09-06T07:37:38.112Z,144.11
2022-09-06T07:38:38.799Z,140.94
2022-09-06T07:39:38.354Z,127.19
2022-09-06T07:40:38.425Z,134.14
2022-09-06T07:41:38.545Z,139.41
2022-09-06T07:42:38.689Z,138.71
2022-09-06T07:43:38.925Z,151.98
2022-09-06T07:44:39.109Z,160.76
2022-09-06T07:45:39.045Z,178.29
2022-09-06T07:46:39.209Z,190.69
2022-09-06T07:48:40.601Z,200.24
2022-09-06T07:49:40.219Z,196.52
2022-09-06T07:50:48.000Z,199.63
2022-09-06T07:51:40.795Z,196.28
2022-09-06T07:53:41.084Z,214.93
2022-09-06T07:54:40.295Z,225.87
2022-09-06T07:55:40.405Z,224.79
2022-09-06T07:56:40.397Z,235.44
2022-09-06T07:57:40.485Z,237.31
2022-09-06T07:58:40.914Z,253.44
2022-09-06T07:59:42.970Z,256.81
2022-09-06T08:00:40.985Z,257.21
2022-09-06T08:01:40.988Z,248.45
2022-09-06T08:02:41.094Z,260.27
2022-09-06T08:03:41.316Z,267.49
2022-09-06T08:04:41.442Z,252.85
2022-09-06T08:07:42.668Z,273.51
2022-09-06T08:08:57.546Z,297.03
2022-09-06T08:09:42.853Z,302.79
2022-09-06T08:10:41.984Z,313.79
2022-09-06T08:11:42.077Z,323.06
2022-09-06T08:12:42.235Z,323.06
2022-09-06T08:13:42.525Z,305.61
2022-09-06T08:14:42.463Z,309.35
2022-09-06T08:15:42.617Z,303.35
2022-09-06T08:16:42.781Z,302.23
2022-09-06T08:17:42.873Z,315.30
2022-09-06T08:18:43.472Z,327.25
2022-09-06T08:19:43.094Z,335.62
2022-09-06T08:20:43.253Z,353.33
2022-09-06T08:21:43.362Z,356.39
2022-09-06T08:22:43.453Z,360.31
2022-09-06T08:23:43.654Z,368.81
2022-09-06T08:24:43.773Z,380.61
2022-09-06T08:25:43.763Z,387.69
2022-09-06T08:26:43.913Z,386.57
2022-09-06T08:27:44.052Z,378.17
2022-09-06T08:28:44.173Z,361.90
2022-09-06T08:29:44.446Z,341.55
2022-09-06T08:30:44.383Z,345.51
2022-09-06T08:31:44.577Z,346.24
2022-09-06T08:32:44.622Z,352.57
2022-09-06T08:33:44.762Z,366.75
2022-09-06T08:34:44.992Z,391.56
2022-09-06T08:35:45.042Z,392.48
2022-09-06T08:36:45.142Z,391.56
2022-09-06T08:37:45.245Z,406.36
2022-09-06T08:38:45.393Z,402.92
2022-09-06T08:39:45.612Z,388.14
2022-09-06T08:40:45.613Z,391.79
2022-09-06T08:41:45.852Z,404.14
2022-09-06T08:42:45.841Z,412.39
2022-09-06T08:43:46.239Z,415.99
2022-09-06T08:45:01.533Z,410.11
2022-09-06T08:45:47.232Z,421.25
2022-09-06T08:46:46.474Z,412.39
2022-09-06T08:47:46.541Z,413.41
2022-09-06T08:48:46.621Z,408.85
2022-09-06T08:49:46.931Z,408.10
2022-09-06T08:50:46.929Z,429.94
2022-09-06T08:51:47.040Z,419.39
2022-09-06T08:53:06.102Z,415.47
2022-09-06T08:53:48.299Z,405.86
2022-09-06T08:54:48.470Z,414.95
2022-09-06T08:55:47.582Z,422.85
2022-09-06T08:56:47.712Z,422.31
2022-09-06T08:57:47.801Z,403.90
2022-09-06T08:58:47.952Z,422.58
2022-09-06T08:59:48.169Z,440.15
2022-09-06T09:00:48.335Z,441.90
2022-09-06T09:01:48.445Z,443.96
2022-09-06T09:02:48.458Z,459.88
2022-09-06T09:03:48.559Z,452.09
2022-09-06T09:04:48.724Z,456.73
2022-09-06T09:05:48.779Z,462.11
2022-09-06T09:06:48.940Z,456.11
2022-09-06T09:07:49.081Z,453.32
2022-09-06T09:08:49.168Z,461.80
2022-09-06T09:09:49.330Z,452.09
2022-09-06T09:10:49.431Z,462.11
2022-09-06T09:11:49.584Z,465.67
2022-09-06T09:12:49.703Z,462.44
2022-09-06T09:13:49.828Z,472.26
2022-09-06T09:14:49.959Z,472.93
2022-09-06T09:15:50.104Z,479.39
2022-09-06T09:16:50.268Z,474.61
2022-09-06T09:17:50.409Z,464.69
2022-09-06T09:18:50.459Z,449.35
2022-09-06T09:19:50.572Z,447.84
2022-09-06T09:20:50.679Z,451.17
2022-09-06T09:21:50.879Z,434.14
2022-09-06T09:22:50.938Z,427.73
2022-09-06T09:23:51.039Z,419.39
2022-09-06T09:24:51.139Z,420.98
2022-09-06T09:25:51.226Z,431.61
2022-09-06T09:26:51.549Z,449.05
2022-09-06T09:27:51.527Z,449.05
2022-09-06T09:28:51.642Z,459.88
2022-09-06T09:30:52.848Z,458.62
2022-09-06T09:31:53.610Z,467.30
2022-09-06T09:32:52.186Z,467.95
2022-09-06T09:33:52.247Z,470.60
2022-09-06T09:34:52.416Z,469.60
2022-09-06T09:35:52.526Z,460.20
2022-09-06T09:37:58.108Z,472.26
2022-09-06T09:38:53.904Z,482.51
2022-09-06T09:39:53.088Z,477.67
2022-09-06T09:40:53.172Z,472.26
2022-09-06T09:41:53.306Z,492.13
2022-09-06T09:42:53.447Z,476.31
2022-09-06T09:43:53.675Z,469.93
2022-09-06T09:44:53.747Z,488.16
2022-09-06T09:45:53.846Z,495.05
2022-09-06T09:46:54.009Z,488.16
2022-09-06T09:47:54.246Z,501.38
2022-09-06T09:48:54.285Z,505.18
2022-09-06T09:49:54.383Z,496.52
2022-09-06T09:50:54.473Z,496.89
2022-09-06T09:51:54.593Z,507.10
2022-09-06T09:52:54.674Z,499.13
2022-09-06T09:53:54.854Z,497.64
2022-09-06T09:54:54.955Z,471.93
2022-09-06T09:55:55.047Z,462.76
2022-09-06T09:56:55.192Z,468.28
2022-09-06T09:57:55.333Z,471.26
2022-09-06T09:58:55.664Z,483.56
2022-09-06T09:59:55.593Z,493.95
2022-09-06T10:00:55.801Z,478.36
2022-09-06T10:01:55.879Z,484.27
2022-09-06T10:02:56.084Z,492.13
2022-09-06T10:04:57.253Z,486.03
2022-09-06T10:06:02.255Z,503.27
2022-09-06T10:07:12.848Z,509.03
2022-09-06T10:07:57.645Z,500.25
2022-09-06T10:08:56.733Z,516.52
2022-09-06T10:09:56.873Z,507.87
2022-09-06T10:10:57.140Z,519.34
2022-09-06T10:11:57.121Z,519.34
2022-09-06T10:12:57.282Z,504.79
2022-09-06T10:13:57.389Z,476.65
2022-09-06T10:14:57.541Z,484.62
2022-09-06T10:15:57.746Z,492.13
2022-09-06T10:16:57.772Z,508.64
2022-09-06T10:17:57.925Z,529.23
2022-09-06T10:18:58.048Z,539.95
2022-09-06T10:19:58.191Z,537.34
2022-09-06T10:20:58.490Z,535.61
2022-09-06T10:21:58.451Z,540.82
2022-09-06T10:22:58.537Z,549.74
2022-09-06T10:24:59.801Z,547.93
2022-09-06T10:25:59.078Z,560.36
2022-09-06T10:26:59.099Z,556.62
2022-09-06T10:28:11.015Z,557.09
2022-09-06T10:29:00.489Z,557.09
2022-09-06T10:29:59.409Z,569.46
2022-09-06T10:30:59.629Z,566.55
2022-09-06T10:31:59.676Z,542.14
2022-09-06T10:32:59.789Z,556.16
2022-09-06T10:33:59.947Z,563.68
2022-09-06T10:35:00.032Z,568.97
2022-09-06T10:36:00.167Z,561.31
2022-09-06T10:37:00.317Z,573.87
2022-09-06T10:38:00.497Z,572.88
2022-09-06T10:39:03.883Z,574.86
2022-09-06T10:40:00.857Z,577.84
2022-09-06T10:41:00.839Z,574.36
2022-09-06T10:42:00.936Z,599.13
2022-09-06T10:43:01.046Z,598.59
2022-09-06T10:44:01.254Z,598.59
2022-09-06T10:45:01.329Z,599.67
2022-09-06T10:46:01.506Z,609.54
2022-09-06T10:47:01.571Z,609.54
2022-09-06T10:48:01.654Z,614.59
2022-09-06T10:49:01.795Z,611.77
2022-09-06T10:50:01.995Z,588.55
2022-09-06T10:51:02.164Z,580.36
2022-09-06T10:52:02.155Z,585.97
2022-09-06T10:53:02.304Z,586.48
2022-09-06T10:54:02.414Z,580.86
2022-09-06T10:55:02.733Z,549.74
2022-09-06T10:56:02.664Z,553.39
2022-09-06T10:57:02.860Z,541.26
2022-09-06T10:58:19.225Z,493.95
2022-09-06T11:00:04.293Z,522.19
2022-09-06T11:01:03.284Z,539.07
2022-09-06T11:02:03.622Z,559.42
2022-09-06T11:04:08.058Z,561.78
2022-09-06T11:06:05.006Z,569.46
2022-09-06T11:07:04.080Z,577.34
2022-09-06T11:09:05.352Z,582.39
2022-09-06T11:10:04.501Z,604.56
2022-09-06T11:11:04.761Z,612.34
2022-09-06T11:12:04.750Z,612.90
2022-09-06T11:13:04.861Z,625.55
2022-09-06T11:14:05.743Z,632.07
2022-09-06T11:15:05.080Z,649.30
2022-09-06T11:16:05.317Z,662.20
2022-09-06T11:17:05.350Z,674.93
2022-09-06T11:18:05.437Z,710.15
2022-09-06T11:19:05.574Z,722.46
2022-09-06T11:20:05.730Z,717.80
2022-09-06T11:21:05.949Z,719.34
2022-09-06T11:22:06.155Z,733.59
2022-09-06T11:23:06.164Z,741.75
2022-09-06T11:24:06.229Z,727.19
2022-09-06T11:25:06.367Z,740.92
2022-09-06T11:26:06.569Z,731.98
2022-09-06T11:27:06.751Z,717.80
2022-09-06T11:28:06.758Z,728.78
2022-09-06T11:29:06.857Z,737.65
2022-09-06T11:30:06.990Z,737.65
2022-09-06T11:31:07.524Z,732.78
2022-09-06T11:32:22.616Z,723.25
2022-09-06T11:33:08.428Z,709.40
2022-09-06T11:34:07.557Z,699.72
2022-09-06T11:35:07.716Z,699.72
2022-09-06T11:36:07.799Z,715.49
2022-09-06T11:37:08.086Z,723.25
2022-09-06T11:38:08.078Z,735.21
2022-09-06T11:39:08.227Z,769.01
2022-09-06T11:41:12.058Z,823.06
2022-09-06T11:42:08.799Z,843.34
2022-09-06T11:43:08.778Z,875.41
2022-09-06T11:44:08.938Z,891.78
2022-09-06T11:45:09.037Z,895.37
2022-09-06T11:46:09.249Z,913.76
2022-09-06T11:47:09.477Z,926.44
2022-09-06T11:48:09.446Z,934.22
2022-09-06T11:49:09.698Z,950.18
2022-09-06T11:50:09.735Z,949.50
2022-09-06T11:51:09.868Z,935.53
2022-09-06T11:52:10.037Z,923.88
2022-09-06T11:53:10.137Z,908.78
2022-09-06T11:54:10.427Z,911.89
2022-09-06T11:55:10.375Z,874.26
2022-09-06T11:56:10.457Z,876.56
2022-09-06T11:57:10.604Z,880.61
2022-09-06T11:58:10.716Z,897.18
2022-09-06T11:59:10.868Z,921.33
2022-09-06T12:00:10.993Z,944.13
2022-09-06T12:01:11.017Z,913.76
2022-09-06T12:02:11.197Z,915.64
2022-09-06T12:04:12.547Z,918.79
2022-09-06T12:05:11.524Z,905.70
2022-09-06T12:06:11.667Z,917.53
2022-09-06T12:07:11.785Z,916.90
2022-09-06T12:08:11.865Z,936.18
2022-09-06T12:09:12.159Z,963.20
2022-09-06T12:10:12.136Z,973.03
2022-09-06T12:11:12.310Z,1000.75
2022-09-06T12:12:16.828Z,1016.76
2022-09-06T12:13:12.526Z,1012.13
2022-09-06T12:14:12.845Z,1001.50
2022-09-06T12:15:12.945Z,994.04
2022-09-06T12:16:13.007Z,1000.00
2022-09-06T12:17:13.041Z,994.04
2022-09-06T12:18:13.195Z,972.32
2022-09-06T12:19:13.306Z,987.43
2022-09-06T12:20:13.515Z,975.88
2022-09-06T12:21:13.546Z,956.30
2022-09-06T12:22:13.705Z,948.83
2022-09-06T12:23:13.805Z,942.13
2022-09-06T12:24:13.895Z,939.48
2022-09-06T12:25:14.083Z,963.90
2022-09-06T12:26:14.435Z,978.74
2022-09-06T12:27:14.295Z,1012.90
2022-09-06T12:28:14.395Z,1034.88
2022-09-06T12:29:14.504Z,1052.01
2022-09-06T12:30:14.639Z,1060.36
2022-09-06T12:31:18.310Z,1059.52
2022-09-06T12:32:14.855Z,1051.18
2022-09-06T12:33:14.957Z,1057.84
2022-09-06T12:34:15.054Z,1056.17
2022-09-06T12:36:16.351Z,1046.24
2022-09-06T12:37:15.585Z,1053.67
2022-09-06T12:38:15.525Z,1043.78
2022-09-06T12:39:15.656Z,1012.90
2022-09-06T12:40:15.756Z,1003.01
2022-09-06T12:41:15.916Z,1019.86
2022-09-06T12:42:16.174Z,980.90
2022-09-06T12:43:16.161Z,946.81
2022-09-06T12:44:16.304Z,928.37
2022-09-06T12:45:16.395Z,931.61
2022-09-06T12:46:16.619Z,952.89
2022-09-06T12:47:16.722Z,985.97
2022-09-06T12:48:16.933Z,1003.01
2022-09-06T12:49:16.863Z,1024.56
2022-09-06T12:50:17.022Z,1031.68
2022-09-06T12:51:17.123Z,1024.56
2022-09-06T12:52:17.223Z,1025.34
2022-09-06T12:53:20.436Z,1000.00
2022-09-06T12:54:18.474Z,995.53
2022-09-06T12:55:17.564Z,999.25
2022-09-06T12:56:17.704Z,997.76
2022-09-06T12:57:17.823Z,975.16
2022-09-06T12:58:17.946Z,963.20
2022-09-06T12:59:18.173Z,989.62
2022-09-06T13:00:18.154Z,964.59
2022-09-06T13:01:18.450Z,921.96
2022-09-06T13:02:18.506Z,874.26
2022-09-06T13:03:18.526Z,874.26
2022-09-06T13:04:18.652Z,902.03
2022-09-06T13:05:18.753Z,923.24